Weather forecast for Bulen (Булен)

Russia, 519 m
N52.847, E104.807


Sounding

Red line — air temperature ˚C.
Blue line — thermal bubble temperature ˚C.
Green line — dew point temperature ˚C.
Wind speed is in meters per second.

Table forecast

GFS 0.25˚ model

temp. wind gust humid. clouds prec. press. hpbl
Sat18 00:00 -14 46.0 ne 2 2 80 99 0.0 1023 20
03:00 -14 61.0 ene 1 2 82 99 0.0 1021 20
06:00 -17 72.0 ene 1 1 86 63 0.0 1020 20
09:00 -18 76.0 ene 1 2 88 33 0.0 1019 20
12:00 -15 76.0 ene 1 2 89 82 0.0 1017 26
15:00 -11 41.0 ne 2 2 91 90 0.0 1015 78
18:00 -12 19.0 nne 1 1 91 100 0.0 1015 21
21:00 -12 260.0 w 0 1 93 100 0.0 1017 21
 
Sun19 00:00 -12 235.0 sw 3 4 92 100 0.0 1018 66
03:00 -12 236.0 sw 2 3 90 100 0.0 1018 25
06:00 -11 308.0 nw 4 13 88 100 0.2 1021 1020
09:00 -19 290.0 wnw 4 8 86 67 0.2 1027 170
12:00 -19 293.0 wnw 4 12 85 0 0.0 1030 509
15:00 -16 269.0 w 3 6 85 0 0.0 1029 488
18:00 -20 188.0 s 2 3 96 4 0.0 1027 20
21:00 -22 80.0 e 2 3 91 2 0.0 1025 20
 
Mon20 00:00 -22 61.0 ene 4 6 86 54 0.0 1021 82
03:00 -22 64.0 ene 4 4 82 57 0.0 1018 50
06:00 -22 63.0 ene 3 4 83 90 0.0 1016 43
09:00 -22 69.0 ene 2 2 89 52 0.0 1016 20
12:00 -19 48.0 ne 2 2 91 68 0.0 1016 37
15:00 -15 48.0 ne 2 2 89 72 0.0 1015 90
18:00 -18 36.0 ne 2 2 88 97 0.0 1016 20
21:00 -17 48.0 ne 1 1 87 88 0.0 1019 20
 
Tue21 00:00 -18 47.0 ne 1 2 91 100 0.0 1020 20
03:00 -20 47.0 ne 2 2 96 84 0.0 1020 20
06:00 -19 60.0 ene 2 2 96 34 0.0 1019 20
09:00 -19 49.0 ne 3 3 90 66 0.0 1019 25
12:00 -15 72.0 ene 2 2 88 100 0.0 1020 75
15:00 -13 302.0 wnw 1 2 92 100 0.1 1019 231
18:00 -17 188.0 s 2 2 99 100 0.0 1019 20
21:00 -20 93.0 e 1 2 100 87 0.1 1020 20
 
Wed22 00:00 -20 57.0 ene 2 3 94 90 0.0 1018 22
03:00 -18 59.0 ene 2 2 86 95 0.0 1016 21
06:00 -19 56.0 ne 0 1 89 73 0.0 1016 20
09:00 -18 297.0 wnw 1 1 89 87 0.0 1019 20
12:00 -16 289.0 wnw 2 6 90 100 0.0 1023 277
15:00 -15 311.0 nw 6 10 84 100 0.1 1027 956
18:00 -21 296.0 wnw 4 8 84 98 0.0 1033 182
21:00 -27 297.0 wnw 3 3 93 56 0.0 1040 22
 

0.020 s